Time;durP1;ratioP1;P1;durP2;ratioP2;P2;SDS_P1;SDS_P2;PMS_P1;PMS_P2;Temp;Humidity;BMP_temperature;BMP_pressure;BME280_temperature;BME280_humidity;BME280_pressure;Samples;Min_cycle;Max_cycle;Signal;HPM_P1;HPM_P2
2022/01/15 00:01:03;;;;;;;30.85;16.30;;;4.80;99.90;;;;;;5066169;28;20105;-60
2022/01/15 00:03:29;;;;;;;;;;;4.80;99.90;;;;;;5064777;28;20059;-59
2022/01/15 00:05:55;;;;;;;24.95;12.88;;;4.70;99.90;;;;;;5067066;28;20353;-57
2022/01/15 00:08:21;;;;;;;29.85;13.95;;;4.70;99.90;;;;;;5067386;28;20074;-57
2022/01/15 00:10:47;;;;;;;;;;;4.70;99.90;;;;;;5067947;28;20043;-60
2022/01/15 00:13:22;;;;;;;28.20;13.52;;;4.60;99.90;;;;;;5068239;28;19905;-58
2022/01/15 00:15:53;;;;;;;30.57;13.77;;;4.60;99.90;;;;;;5067445;28;20021;-58
2022/01/15 00:18:28;;;;;;;31.13;15.65;;;4.60;99.90;;;;;;5065115;28;20081;-60
2022/01/15 00:20:54;;;;;;;37.13;17.55;;;4.60;99.90;;;;;;5066452;28;20078;-59
2022/01/15 00:23:19;;;;;;;32.95;16.63;;;4.50;99.90;;;;;;5064353;28;20028;-60
2022/01/15 00:25:45;;;;;;;;;;;4.50;99.90;;;;;;5067109;28;20055;-60
2022/01/15 00:28:10;;;;;;;25.50;14.77;;;4.50;99.90;;;;;;5066918;28;20099;-60
2022/01/15 00:30:36;;;;;;;36.75;16.00;;;4.50;99.90;;;;;;5065561;28;20025;-57
2022/01/15 00:33:01;;;;;;;;;;;4.50;99.90;;;;;;5065566;28;20033;-57
2022/01/15 00:35:28;;;;;;;28.35;15.07;;;4.50;99.90;;;;;;5061184;28;20193;-60
2022/01/15 00:37:55;;;;;;;35.78;17.83;;;4.50;99.90;;;;;;5064947;28;20051;-58
2022/01/15 00:40:21;;;;;;;33.40;17.35;;;4.40;99.90;;;;;;5065959;28;20469;-56
2022/01/15 00:42:47;;;;;;;42.05;17.90;;;4.40;99.90;;;;;;5066248;28;20028;-59
2022/01/15 00:45:19;;;;;;;30.45;15.90;;;4.40;99.90;;;;;;5065193;28;20017;-59
2022/01/15 00:47:45;;;;;;;37.38;16.50;;;4.40;99.90;;;;;;5064773;28;20142;-59
2022/01/15 00:50:11;;;;;;;56.70;16.25;;;4.40;99.90;;;;;;5064614;28;20577;-58
2022/01/15 00:52:36;;;;;;;;;;;4.30;99.90;;;;;;5064787;28;20029;-56
2022/01/15 00:55:03;;;;;;;30.17;15.20;;;4.30;99.90;;;;;;5063622;28;19919;-56
2022/01/15 00:57:29;;;;;;;34.40;16.48;;;4.40;99.90;;;;;;5065317;28;20112;-59
2022/01/15 00:59:54;;;;;;;40.20;18.25;;;4.40;99.90;;;;;;5065343;28;20165;-55
2022/01/15 01:02:20;;;;;;;;;;;4.40;99.90;;;;;;5058946;28;20481;-58
2022/01/15 01:04:45;;;;;;;31.45;14.23;;;4.50;99.90;;;;;;5066255;28;20119;-59
2022/01/15 01:07:11;;;;;;;45.22;16.73;;;4.50;99.90;;;;;;5067050;28;20032;-57
2022/01/15 01:20:36;;;;;;;32.92;17.98;;;4.60;99.90;;;;;;5064009;28;20055;-59
2022/01/15 01:23:02;;;;;;;33.70;18.35;;;4.70;99.90;;;;;;5064634;28;21850;-58
2022/01/15 01:25:35;;;;;;;52.45;18.38;;;4.70;99.90;;;;;;5065452;28;20550;-56
2022/01/15 01:28:08;;;;;;;39.42;18.67;;;4.70;99.90;;;;;;5063215;28;20146;-59
2022/01/15 01:30:45;;;;;;;35.60;19.60;;;4.70;99.90;;;;;;5064366;28;20036;-59
2022/01/15 01:35:44;;;;;;;36.60;17.63;;;4.70;99.90;;;;;;5064363;28;20116;-58
2022/01/15 01:38:28;;;;;;;37.55;19.73;;;4.70;99.90;;;;;;5065737;28;20034;-58
2022/01/15 01:40:53;;;;;;;32.58;19.30;;;4.70;99.90;;;;;;5063325;28;20317;-60
2022/01/15 01:45:53;;;;;;;35.95;19.40;;;4.70;99.90;;;;;;5062952;28;20032;-60
2022/01/15 01:48:19;;;;;;;41.88;18.73;;;4.70;99.90;;;;;;5065899;28;20146;-60
2022/01/15 01:50:44;;;;;;;39.47;19.42;;;4.70;99.90;;;;;;5063011;28;20115;-59
2022/01/15 01:53:10;;;;;;;41.00;19.77;;;4.70;99.90;;;;;;5063818;28;20032;-58
2022/01/15 01:55:36;;;;;;;39.85;20.50;;;4.80;99.90;;;;;;5062531;28;20436;-59
2022/01/15 01:58:02;;;;;;;37.97;18.63;;;4.80;99.90;;;;;;5063578;28;20086;-59
2022/01/15 02:00:29;;;;;;;38.67;19.67;;;4.70;99.90;;;;;;5061754;28;20028;-59
2022/01/15 02:02:55;;;;;;;40.08;19.80;;;4.80;99.90;;;;;;5063858;28;20033;-59
2022/01/15 02:05:21;;;;;;;32.88;19.45;;;4.80;99.90;;;;;;5063770;28;20382;-59
2022/01/15 02:07:48;;;;;;;35.83;19.55;;;4.80;99.90;;;;;;5064732;28;20028;-60
2022/01/15 02:10:16;;;;;;;36.22;21.52;;;4.80;99.90;;;;;;5062344;28;20080;-58
2022/01/15 02:12:43;;;;;;;41.60;19.38;;;4.80;99.90;;;;;;5062121;28;20031;-59
2022/01/15 02:15:12;;;;;;;44.80;21.58;;;4.80;99.90;;;;;;5063059;28;20214;-59
2022/01/15 02:17:41;;;;;;;45.15;20.58;;;4.80;99.90;;;;;;5065730;28;20032;-59
2022/01/15 02:25:46;;;;;;;41.17;21.13;;;4.90;99.90;;;;;;5065157;28;20134;-59
2022/01/15 02:28:12;;;;;;;42.47;18.75;;;4.90;99.90;;;;;;5062253;28;20123;-56
2022/01/15 02:30:38;;;;;;;34.58;20.75;;;4.90;99.90;;;;;;5063826;28;20103;-58
2022/01/15 02:33:05;;;;;;;44.08;19.33;;;4.90;99.90;;;;;;5063794;28;20282;-59
2022/01/15 02:35:31;;;;;;;39.08;18.02;;;5.00;99.90;;;;;;5065994;28;20496;-59
2022/01/15 02:38:08;;;;;;;35.03;17.05;;;5.00;99.90;;;;;;5064137;28;20037;-60
2022/01/15 02:40:37;;;;;;;41.67;18.40;;;5.00;99.90;;;;;;5064821;28;20402;-59
2022/01/15 02:43:17;;;;;;;41.42;22.77;;;5.00;99.90;;;;;;5062612;28;20039;-58
2022/01/15 02:45:45;;;;;;;44.05;20.95;;;5.00;99.90;;;;;;5064814;28;20060;-56
2022/01/15 02:48:17;;;;;;;38.22;20.27;;;5.10;99.90;;;;;;5064616;28;20024;-60
2022/01/15 02:50:45;;;;;;;35.40;18.75;;;5.10;99.90;;;;;;5061670;28;20028;-59
2022/01/15 02:53:12;;;;;;;41.80;19.85;;;5.20;99.90;;;;;;5064183;28;20028;-59
2022/01/15 02:55:45;;;;;;;37.75;18.55;;;5.20;99.90;;;;;;5064171;28;20579;-59
2022/01/15 02:58:11;;;;;;;38.78;19.73;;;5.20;99.90;;;;;;5060975;28;20032;-59
2022/01/15 03:00:37;;;;;;;41.85;20.17;;;5.20;99.90;;;;;;5063691;28;20090;-60
2022/01/15 03:03:03;;;;;;;38.10;17.35;;;5.20;99.90;;;;;;5061980;28;20440;-58
2022/01/15 03:05:28;;;;;;;40.65;19.15;;;5.20;99.90;;;;;;5063867;28;20043;-58
2022/01/15 03:07:53;;;;;;;;;;;5.30;99.90;;;;;;5062343;28;20044;-57
2022/01/15 03:10:19;;;;;;;38.78;18.33;;;5.30;99.90;;;;;;5064808;28;20007;-59
2022/01/15 03:12:45;;;;;;;36.47;17.48;;;5.30;99.90;;;;;;5063499;28;20105;-59
2022/01/15 03:15:17;;;;;;;40.75;20.80;;;5.30;99.90;;;;;;5063251;28;20086;-57
2022/01/15 03:17:43;;;;;;;39.03;18.08;;;5.30;99.90;;;;;;5064508;28;20021;-56
2022/01/15 03:20:08;;;;;;;40.15;18.67;;;5.30;99.90;;;;;;5063964;28;20089;-59
2022/01/15 03:22:34;;;;;;;;;;;5.40;99.90;;;;;;5065112;28;20139;-59
2022/01/15 03:24:59;;;;;;;38.42;17.92;;;5.30;99.90;;;;;;5064344;28;20463;-59
2022/01/15 03:27:25;;;;;;;43.42;18.67;;;5.40;99.90;;;;;;5063686;28;20110;-57
2022/01/15 03:29:51;;;;;;;;;;;5.30;99.90;;;;;;5065412;28;20042;-58
2022/01/15 03:32:17;;;;;;;36.65;19.23;;;5.40;99.90;;;;;;5064489;28;19919;-60
2022/01/15 03:34:43;;;;;;;37.97;17.45;;;5.40;99.90;;;;;;5067223;28;20058;-60
2022/01/15 03:37:09;;;;;;;32.67;17.58;;;5.40;99.90;;;;;;5067490;28;20781;-60
2022/01/15 03:39:35;;;;;;;38.42;18.25;;;5.40;99.90;;;;;;5067902;28;20024;-60
2022/01/15 03:42:02;;;;;;;36.55;17.33;;;5.40;99.90;;;;;;5065918;28;20027;-59
2022/01/15 03:44:27;;;;;;;36.42;17.67;;;5.40;99.90;;;;;;5067521;28;20052;-60
2022/01/15 03:46:53;;;;;;;47.50;20.30;;;5.40;99.90;;;;;;5065792;28;20044;-60
2022/01/15 03:49:18;;;;;;;45.65;18.85;;;5.40;99.90;;;;;;5067871;28;20553;-60
2022/01/15 03:51:45;;;;;;;44.85;20.60;;;5.50;99.90;;;;;;5067090;28;20035;-60
2022/01/15 03:54:11;;;;;;;40.05;18.83;;;5.50;99.90;;;;;;5066637;28;20028;-61
2022/01/15 03:56:36;;;;;;;49.22;20.90;;;5.50;99.90;;;;;;5067419;28;20059;-61
2022/01/15 03:59:02;;;;;;;40.88;19.80;;;5.50;99.90;;;;;;5066657;28;20087;-60
2022/01/15 04:01:27;;;;;;;47.85;22.52;;;5.50;99.90;;;;;;5065043;28;20074;-60
2022/01/15 04:03:53;;;;;;;48.78;21.67;;;5.50;99.90;;;;;;5067005;28;20056;-61
2022/01/15 04:06:18;;;;;;;45.53;23.10;;;5.50;99.90;;;;;;5064327;28;20584;-60
2022/01/15 04:08:44;;;;;;;;;;;5.50;99.90;;;;;;5068321;28;20033;-60
2022/01/15 04:11:09;;;;;;;43.78;20.10;;;5.50;99.90;;;;;;5064878;28;19914;-60
2022/01/15 04:13:35;;;;;;;46.63;21.38;;;5.50;99.90;;;;;;5067279;28;20550;-60
2022/01/15 04:16:00;;;;;;;42.35;19.35;;;5.50;99.90;;;;;;5064775;28;20035;-60
2022/01/15 04:18:29;;;;;;;50.85;22.48;;;5.50;99.90;;;;;;5068438;28;20028;-61
2022/01/15 04:20:56;;;;;;;51.95;20.45;;;5.50;99.90;;;;;;5066126;28;20059;-60
2022/01/15 04:23:22;;;;;;;41.40;19.05;;;5.50;99.90;;;;;;5065545;28;20016;-59
2022/01/15 04:25:47;;;;;;;43.83;17.95;;;5.40;99.90;;;;;;5066150;28;20027;-59
2022/01/15 04:28:13;;;;;;;;;;;5.50;99.90;;;;;;5067878;28;20032;-60
2022/01/15 04:30:47;;;;;;;42.13;19.92;;;5.50;99.90;;;;;;5065233;28;20396;-60
2022/01/15 04:33:12;;;;;;;45.30;18.08;;;5.50;99.90;;;;;;5065924;28;20036;-60
2022/01/15 04:35:38;;;;;;;56.55;21.08;;;5.50;99.90;;;;;;5066580;28;20028;-60
2022/01/15 04:38:08;;;;;;;48.55;22.13;;;5.50;99.90;;;;;;5065057;28;20036;-61
2022/01/15 04:40:33;;;;;;;44.55;20.90;;;5.50;99.90;;;;;;5063714;28;20036;-61
2022/01/15 04:43:00;;;;;;;39.10;19.33;;;5.50;99.90;;;;;;5066618;28;20385;-60
2022/01/15 04:45:25;;;;;;;45.92;20.95;;;5.50;99.90;;;;;;5067119;28;20028;-60
2022/01/15 04:47:51;;;;;;;43.35;20.15;;;5.50;99.90;;;;;;5067236;28;20086;-60
2022/01/15 04:50:20;;;;;;;41.20;18.52;;;5.40;99.90;;;;;;5066542;28;20064;-59
2022/01/15 04:52:46;;;;;;;46.50;19.90;;;5.50;99.90;;;;;;5066326;28;20031;-60
2022/01/15 04:55:12;;;;;;;46.17;19.90;;;5.50;99.90;;;;;;5066378;28;20024;-60
2022/01/15 04:57:39;;;;;;;45.58;21.17;;;5.50;99.90;;;;;;5066616;28;20037;-60
2022/01/15 05:00:08;;;;;;;46.88;20.35;;;5.50;99.90;;;;;;5064748;28;20036;-60
2022/01/15 05:02:34;;;;;;;51.35;22.52;;;5.50;99.90;;;;;;5066894;28;20564;-60
2022/01/15 05:04:59;;;;;;;43.72;19.88;;;5.50;99.90;;;;;;5065219;28;20028;-59
2022/01/15 05:07:25;;;;;;;45.50;18.27;;;5.50;99.90;;;;;;5066351;28;20043;-59
2022/01/15 05:09:50;;;;;;;42.17;17.75;;;5.50;99.90;;;;;;5065865;28;20020;-60
2022/01/15 05:12:39;;;;;;;43.95;19.55;;;5.40;99.90;;;;;;5068026;28;20028;-59
2022/01/15 05:15:05;;;;;;;50.00;20.60;;;5.40;99.90;;;;;;5064264;28;20024;-60
2022/01/15 05:17:30;;;;;;;47.90;21.02;;;5.40;99.90;;;;;;5065669;28;20032;-60
2022/01/15 05:19:56;;;;;;;44.38;19.48;;;5.40;99.90;;;;;;5065289;28;20025;-60
2022/01/15 05:22:22;;;;;;;41.25;18.88;;;5.40;99.90;;;;;;5066008;28;20020;-57
2022/01/15 05:24:47;;;;;;;;;;;5.30;99.90;;;;;;5065657;28;20039;-57
2022/01/15 05:27:13;;;;;;;44.05;19.90;;;5.40;99.90;;;;;;5066358;28;19909;-59
2022/01/15 05:29:39;;;;;;;53.35;20.70;;;5.40;99.90;;;;;;5064699;28;20035;-59
2022/01/15 05:32:05;;;;;;;47.92;19.27;;;5.40;99.90;;;;;;5065013;28;20119;-59
2022/01/15 05:34:31;;;;;;;;;;;5.40;99.90;;;;;;5064666;28;20024;-59
2022/01/15 05:36:56;;;;;;;37.22;17.98;;;5.40;99.90;;;;;;5064534;28;19923;-60
2022/01/15 05:39:22;;;;;;;43.75;18.30;;;5.50;99.90;;;;;;5064580;28;20017;-58
2022/01/15 05:41:47;;;;;;;47.25;21.17;;;5.50;99.90;;;;;;5065775;28;20032;-59
2022/01/15 05:44:13;;;;;;;44.92;20.13;;;5.40;99.90;;;;;;5064753;28;20480;-60
2022/01/15 05:46:38;;;;;;;;;;;5.40;99.90;;;;;;5066072;28;20119;-58
2022/01/15 05:49:04;;;;;;;37.92;17.02;;;5.50;99.90;;;;;;5064256;28;19909;-60
2022/01/15 05:51:31;;;;;;;34.55;16.23;;;5.40;99.90;;;;;;5064197;28;20472;-60
2022/01/15 05:54:00;;;;;;;49.80;21.55;;;5.40;99.90;;;;;;5063865;28;20539;-60
2022/01/15 05:56:27;;;;;;;41.22;19.45;;;5.40;99.90;;;;;;5064545;28;20546;-60
2022/01/15 05:58:52;;;;;;;44.33;19.70;;;5.30;99.90;;;;;;5064458;28;20033;-60
2022/01/15 06:01:18;;;;;;;51.08;21.25;;;5.40;99.90;;;;;;5064792;28;20628;-61
2022/01/15 06:03:44;;;;;;;47.28;19.65;;;5.40;99.90;;;;;;5065450;28;20028;-60
2022/01/15 06:06:09;;;;;;;46.63;20.33;;;5.40;99.90;;;;;;5060908;28;20024;-61
2022/01/15 06:08:35;;;;;;;42.55;19.75;;;5.40;99.90;;;;;;5064848;28;20064;-61
2022/01/15 06:11:00;;;;;;;43.85;19.60;;;5.40;99.90;;;;;;5064558;28;20443;-61
2022/01/15 06:13:26;;;;;;;;;;;5.40;99.90;;;;;;5065047;28;20025;-61
2022/01/15 06:15:51;;;;;;;42.83;17.85;;;5.50;99.90;;;;;;5064192;28;19908;-60
2022/01/15 06:18:16;;;;;;;;;;;5.50;99.90;;;;;;5065859;28;20020;-59
2022/01/15 06:20:42;;;;;;;44.67;20.05;;;5.50;99.90;;;;;;5062191;28;19916;-61
2022/01/15 06:23:08;;;;;;;51.00;21.75;;;5.50;99.90;;;;;;5061948;28;20028;-61
2022/01/15 06:25:33;;;;;;;71.47;25.90;;;5.40;99.90;;;;;;5064799;28;20009;-60
2022/01/15 06:27:59;;;;;;;48.10;19.08;;;5.40;99.90;;;;;;5064828;28;20038;-61
2022/01/15 06:30:24;;;;;;;43.60;20.15;;;5.40;99.90;;;;;;5063653;28;20032;-61
2022/01/15 06:32:50;;;;;;;;;;;5.40;99.90;;;;;;5064752;28;20044;-60
2022/01/15 06:35:17;;;;;;;44.15;19.08;;;5.40;99.90;;;;;;5063439;28;20003;-61
2022/01/15 06:37:44;;;;;;;41.92;17.65;;;5.40;99.90;;;;;;5063735;28;20063;-61
2022/01/15 06:40:10;;;;;;;49.97;19.65;;;5.40;99.90;;;;;;5063418;28;20504;-61
2022/01/15 06:42:36;;;;;;;;;;;5.30;99.90;;;;;;5066312;28;20029;-59
2022/01/15 06:45:02;;;;;;;43.05;19.15;;;5.30;99.90;;;;;;5062779;28;19916;-59
2022/01/15 06:47:29;;;;;;;39.97;18.05;;;5.30;99.90;;;;;;5063195;28;20438;-60
2022/01/15 06:49:54;;;;;;;42.10;18.52;;;5.30;99.90;;;;;;5064643;28;20024;-61
2022/01/15 06:52:21;;;;;;;42.03;19.67;;;5.40;99.90;;;;;;5063160;28;20119;-58
2022/01/15 06:54:46;;;;;;;43.63;20.42;;;5.40;99.90;;;;;;5063215;28;20048;-61
2022/01/15 06:57:12;;;;;;;47.63;19.48;;;5.40;99.90;;;;;;5064432;28;20079;-59
2022/01/15 06:59:38;;;;;;;48.10;18.33;;;5.40;99.90;;;;;;5063745;28;20029;-58
2022/01/15 07:02:05;;;;;;;42.30;18.85;;;5.40;99.90;;;;;;5061124;28;20040;-61
2022/01/15 07:04:30;;;;;;;43.10;21.25;;;5.40;99.90;;;;;;5064705;28;20479;-59
2022/01/15 07:06:56;;;;;;;41.97;19.73;;;5.40;99.90;;;;;;5065490;28;20441;-61
2022/01/15 07:09:22;;;;;;;42.63;22.70;;;5.40;99.90;;;;;;5068089;28;20428;-61
2022/01/15 07:11:47;;;;;;;38.72;18.27;;;5.80;99.90;;;;;;5065589;28;20473;-61
2022/01/15 07:14:13;;;;;;;39.10;18.98;;;6.60;99.90;;;;;;5066333;28;20091;-58
2022/01/15 07:16:38;;;;;;;38.88;18.35;;;6.70;99.90;;;;;;5067122;28;20035;-60
2022/01/15 07:19:04;;;;;;;38.13;17.30;;;6.40;99.90;;;;;;5067806;28;20036;-60
2022/01/15 07:21:29;;;;;;;;;;;6.10;99.90;;;;;;5067828;28;20473;-59
2022/01/15 07:23:55;;;;;;;48.20;20.58;;;5.90;99.90;;;;;;5067676;28;20537;-61
2022/01/15 07:26:20;;;;;;;39.80;19.05;;;5.80;99.90;;;;;;5066049;28;20119;-59
2022/01/15 07:28:46;;;;;;;41.05;19.13;;;5.70;99.90;;;;;;5066531;28;20033;-59
2022/01/15 07:31:11;;;;;;;37.95;18.73;;;5.60;99.90;;;;;;5065840;28;20359;-59
2022/01/15 07:33:37;;;;;;;;;;;5.60;99.90;;;;;;5068373;28;20059;-55
2022/01/15 07:36:02;;;;;;;35.70;17.13;;;5.60;99.90;;;;;;5067360;28;19932;-58
2022/01/15 07:38:28;;;;;;;;;;;5.60;99.90;;;;;;5067736;28;20036;-58
2022/01/15 07:40:56;;;;;;;39.95;19.83;;;5.60;99.90;;;;;;5067555;28;19931;-58
2022/01/15 07:43:22;;;;;;;37.60;18.83;;;5.60;99.90;;;;;;5065018;28;20466;-60
2022/01/15 07:45:47;;;;;;;47.28;20.45;;;5.60;99.90;;;;;;5066481;28;20029;-61
2022/01/15 07:48:13;;;;;;;51.72;24.90;;;5.60;99.90;;;;;;5065203;28;20115;-60
2022/01/15 07:50:38;;;;;;;45.53;17.98;;;5.60;99.90;;;;;;5068442;28;20029;-60
2022/01/15 07:53:04;;;;;;;;;;;5.50;99.90;;;;;;5066043;28;20043;-60
2022/01/15 07:55:30;;;;;;;47.38;19.23;;;5.50;99.90;;;;;;5067701;28;19912;-57
2022/01/15 07:57:56;;;;;;;43.03;20.15;;;5.50;99.90;;;;;;5066327;28;20115;-59
2022/01/15 08:00:21;;;;;;;48.45;22.73;;;5.50;99.90;;;;;;5066182;28;20039;-59
2022/01/15 08:02:47;;;;;;;45.15;22.30;;;5.60;99.90;;;;;;5065382;28;20024;-61
2022/01/15 08:05:13;;;;;;;37.25;17.83;;;5.60;99.90;;;;;;5066141;28;20029;-61
2022/01/15 08:07:42;;;;;;;41.42;17.42;;;5.60;99.90;;;;;;5067232;28;20026;-61
2022/01/15 08:10:09;;;;;;;41.42;17.55;;;5.60;99.90;;;;;;5065691;28;20043;-60
2022/01/15 08:12:45;;;;;;;35.92;16.33;;;5.70;99.90;;;;;;5062382;28;20489;-62
2022/01/15 08:15:11;;;;;;;40.58;16.95;;;5.70;99.90;;;;;;5065341;28;20473;-59
2022/01/15 08:17:37;;;;;;;44.65;18.40;;;5.70;99.90;;;;;;5067328;28;20895;-58
2022/01/15 08:20:03;;;;;;;47.03;21.15;;;5.70;99.90;;;;;;5067642;28;20090;-60
2022/01/15 08:22:29;;;;;;;50.35;20.05;;;5.70;99.90;;;;;;5069815;28;20382;-58
2022/01/15 08:24:54;;;;;;;47.63;18.65;;;5.70;99.90;;;;;;5067053;28;20021;-59
2022/01/15 08:27:20;;;;;;;;;;;5.80;99.90;;;;;;5068399;28;20071;-60
2022/01/15 08:29:45;;;;;;;37.28;16.90;;;5.80;99.90;;;;;;5066482;28;20255;-60
2022/01/15 08:32:11;;;;;;;38.00;16.13;;;5.80;99.90;;;;;;5066773;28;20433;-60
2022/01/15 08:34:37;;;;;;;;;;;5.90;99.90;;;;;;5067317;28;20028;-59
2022/01/15 08:37:03;;;;;;;49.50;17.20;;;5.90;99.90;;;;;;5065714;28;19970;-56
2022/01/15 08:39:28;;;;;;;36.38;17.55;;;5.90;99.90;;;;;;5067227;28;20032;-57
2022/01/15 08:41:54;;;;;;;43.58;18.90;;;5.90;99.90;;;;;;5065874;28;20020;-56
2022/01/15 08:44:25;;;;;;;44.78;16.15;;;5.90;99.90;;;;;;5065192;28;20105;-59
2022/01/15 08:46:51;;;;;;;34.92;16.35;;;5.90;99.90;;;;;;5065219;28;20120;-58
2022/01/15 08:49:18;;;;;;;36.20;14.60;;;6.00;99.90;;;;;;5066742;28;20855;-57
2022/01/15 08:51:44;;;;;;;37.53;15.07;;;6.00;99.90;;;;;;5067706;28;20025;-58
2022/01/15 08:54:10;;;;;;;35.15;15.15;;;6.00;99.90;;;;;;5064187;28;20028;-60
2022/01/15 08:56:36;;;;;;;;;;;6.00;99.90;;;;;;5062989;28;20147;-58
2022/01/15 08:59:03;;;;;;;30.75;13.40;;;6.00;99.90;;;;;;5064744;28;19965;-58
2022/01/15 09:01:29;;;;;;;27.00;13.68;;;6.10;99.90;;;;;;5063896;28;20020;-60
2022/01/15 09:03:55;;;;;;;;;;;6.10;99.90;;;;;;5064569;28;20411;-61
2022/01/15 09:06:21;;;;;;;31.73;14.90;;;6.00;99.90;;;;;;5064129;28;20354;-60
2022/01/15 09:08:47;;;;;;;42.10;19.27;;;6.10;99.90;;;;;;5066169;28;20233;-59
2022/01/15 09:11:13;;;;;;;31.63;13.82;;;6.10;99.90;;;;;;5064347;28;20111;-59
2022/01/15 09:13:40;;;;;;;;;;;6.10;99.90;;;;;;5066116;28;20036;-56
2022/01/15 09:16:06;;;;;;;45.75;20.40;;;6.10;99.90;;;;;;5065405;28;19908;-62
2022/01/15 09:18:31;;;;;;;41.20;21.17;;;6.20;99.90;;;;;;5064539;28;20033;-61
2022/01/15 09:20:57;;;;;;;28.10;16.17;;;6.10;99.90;;;;;;5064755;28;20394;-59
2022/01/15 09:23:23;;;;;;;38.92;19.13;;;6.20;99.90;;;;;;5065455;28;20024;-58
2022/01/15 09:25:50;;;;;;;;;;;6.20;99.90;;;;;;5065582;28;20021;-58
2022/01/15 09:30:59;;;;;;;29.60;15.18;;;6.20;99.90;;;;;;5063766;28;20450;-58
2022/01/15 09:33:25;;;;;;;33.33;15.75;;;6.30;99.90;;;;;;5062866;28;20036;-60
2022/01/15 09:35:51;;;;;;;39.83;16.75;;;6.30;99.90;;;;;;5065034;28;20025;-59
2022/01/15 09:38:17;;;;;;;29.52;15.68;;;6.30;99.90;;;;;;5065165;28;20028;-58
2022/01/15 09:40:43;;;;;;;28.75;15.57;;;6.30;99.90;;;;;;5064523;28;20090;-58
2022/01/15 09:43:09;;;;;;;30.65;16.35;;;6.40;99.90;;;;;;5064638;28;20446;-57
2022/01/15 09:45:35;;;;;;;31.40;15.32;;;6.40;99.90;;;;;;5064654;28;20063;-57
2022/01/15 09:48:04;;;;;;;32.58;16.17;;;6.40;99.90;;;;;;5064423;28;20044;-60
2022/01/15 09:50:35;;;;;;;35.50;16.55;;;6.50;99.90;;;;;;5063500;28;20559;-60
2022/01/15 09:53:01;;;;;;;32.22;15.95;;;6.50;99.90;;;;;;5064501;28;20089;-60
2022/01/15 09:55:27;;;;;;;32.42;14.18;;;6.60;99.90;;;;;;5064146;28;20024;-60
2022/01/15 09:57:53;;;;;;;29.35;15.57;;;6.70;99.90;;;;;;5064527;28;20138;-59
2022/01/15 10:00:20;;;;;;;26.27;14.02;;;6.70;99.90;;;;;;5063754;28;20028;-58
2022/01/15 10:02:49;;;;;;;28.67;15.38;;;6.70;99.90;;;;;;5064996;28;20021;-60
2022/01/15 10:05:16;;;;;;;23.90;13.20;;;6.70;99.90;;;;;;5064917;28;20024;-59
2022/01/15 10:08:05;;;;;;;34.65;17.73;;;6.70;99.90;;;;;;5062477;28;20024;-59
2022/01/15 10:10:34;;;;;;;28.05;15.18;;;6.70;99.90;;;;;;5064708;28;20119;-60
2022/01/15 10:13:14;;;;;;;25.48;13.45;;;6.70;99.90;;;;;;5062199;28;20028;-59
2022/01/15 10:15:42;;;;;;;31.70;13.43;;;6.80;99.90;;;;;;5063088;28;20044;-60
2022/01/15 10:18:27;;;;;;;33.20;15.23;;;6.80;99.90;;;;;;5062387;28;20036;-58
2022/01/15 10:20:55;;;;;;;28.52;13.77;;;6.80;99.90;;;;;;5063465;28;20300;-60
2022/01/15 10:23:23;;;;;;;34.78;18.13;;;6.80;99.90;;;;;;5062912;28;20102;-61
2022/01/15 10:26:11;;;;;;;22.00;10.73;;;7.10;99.90;;;;;;5061396;28;20028;-60
2022/01/15 10:28:58;;;;;;;23.33;13.05;;;8.00;99.90;;;;;;5064459;28;20036;-59
2022/01/15 10:31:28;;;;;;;24.30;13.02;;;8.00;99.90;;;;;;5059539;28;20025;-61
2022/01/15 10:33:56;;;;;;;34.95;15.68;;;7.80;99.90;;;;;;5158848;22;20052;-55
2022/01/15 10:36:24;;;;;;;30.48;13.10;;;7.60;99.90;;;;;;5034713;28;20091;-56
2022/01/15 10:38:50;;;;;;;26.98;12.80;;;7.50;99.90;;;;;;5032762;28;20133;-57
2022/01/15 10:41:28;;;;;;;;;;;7.40;99.90;;;;;;5028660;28;20017;-55
2022/01/15 10:43:54;;;;;;;40.60;13.82;;;7.30;99.90;;;;;;5033205;28;20377;-55
2022/01/15 10:46:31;;;;;;;;;;;7.20;99.90;;;;;;5028330;28;20033;-58
2022/01/15 10:48:56;;;;;;;25.42;11.65;;;7.20;99.90;;;;;;5025764;28;19920;-57
2022/01/15 10:51:22;;;;;;;28.77;14.82;;;7.10;99.90;;;;;;5035224;28;20017;-53
2022/01/15 10:53:47;;;;;;;;;;;7.20;99.90;;;;;;5034760;28;20029;-54
2022/01/15 10:56:17;;;;;;;26.83;12.88;;;7.20;99.90;;;;;;5029590;28;19941;-55
2022/01/15 10:58:43;;;;;;;33.70;13.07;;;7.20;99.90;;;;;;5031119;28;20483;-55
2022/01/15 11:01:12;;;;;;;22.92;12.65;;;7.30;99.90;;;;;;5028286;28;20036;-55
2022/01/15 11:03:44;;;;;;;26.30;13.82;;;7.30;99.90;;;;;;5031132;28;20099;-56
2022/01/15 11:06:10;;;;;;;26.17;13.52;;;7.30;99.90;;;;;;5030697;28;20508;-57
2022/01/15 11:08:40;;;;;;;32.70;13.73;;;7.30;99.90;;;;;;5031438;28;20426;-56
2022/01/15 11:11:08;;;;;;;24.52;12.32;;;7.30;99.90;;;;;;5033047;28;20104;-58
2022/01/15 11:13:42;;;;;;;27.77;13.00;;;7.30;99.90;;;;;;5028286;28;20029;-57
2022/01/15 11:16:26;;;;;;;31.42;13.55;;;7.40;99.90;;;;;;5033798;28;20037;-54
2022/01/15 11:18:56;;;;;;;23.40;12.15;;;7.30;99.90;;;;;;5025348;28;20044;-57
2022/01/15 11:21:23;;;;;;;20.92;10.85;;;7.40;99.90;;;;;;5023054;28;20057;-56
2022/01/15 11:23:50;;;;;;;22.40;11.00;;;7.40;99.90;;;;;;5036550;28;20063;-56
2022/01/15 11:26:20;;;;;;;19.00;8.60;;;7.40;99.90;;;;;;5033903;28;20021;-55
2022/01/15 11:28:46;;;;;;;27.02;11.25;;;7.30;99.90;;;;;;5032844;28;20026;-57
2022/01/15 11:31:14;;;;;;;;;;;7.30;99.90;;;;;;5032789;28;20351;-56
2022/01/15 11:33:46;;;;;;;18.80;8.98;;;7.30;99.90;;;;;;5033591;28;19913;-56
2022/01/15 11:36:30;;;;;;;18.83;10.02;;;7.20;99.90;;;;;;5024263;28;20061;-57
2022/01/15 11:38:57;;;;;;;24.85;10.55;;;7.20;99.90;;;;;;5025344;28;20025;-54
2022/01/15 11:41:26;;;;;;;26.98;9.82;;;7.20;99.90;;;;;;5031853;28;20033;-56
2022/01/15 11:43:59;;;;;;;26.60;11.45;;;7.20;99.90;;;;;;5027806;28;20033;-56
2022/01/15 11:46:24;;;;;;;26.98;11.85;;;7.30;99.90;;;;;;5024801;28;20033;-56
2022/01/15 11:48:50;;;;;;;;;;;7.20;99.90;;;;;;5031419;28;20393;-57
2022/01/15 11:51:17;;;;;;;23.95;11.18;;;7.20;99.90;;;;;;5036512;28;19982;-58
2022/01/15 11:53:54;;;;;;;28.40;11.35;;;7.20;99.90;;;;;;5041092;28;20485;-58
2022/01/15 11:56:21;;;;;;;24.00;12.02;;;7.20;99.90;;;;;;5028561;28;20398;-59
2022/01/15 11:58:46;;;;;;;25.17;12.95;;;7.20;99.90;;;;;;5035638;28;20120;-56
2022/01/15 12:01:31;;;;;;;;;;;7.30;99.90;;;;;;5040622;28;20502;-59
2022/01/15 12:04:24;;;;;;;27.17;12.40;;;7.30;99.90;;;;;;5036118;28;19920;-59
2022/01/15 12:07:17;;;;;;;24.38;12.40;;;7.20;99.90;;;;;;5029732;28;20017;-57
2022/01/15 12:09:47;;;;;;;21.27;13.10;;;7.20;99.90;;;;;;5024607;28;20036;-57
2022/01/15 12:12:31;;;;;;;25.35;12.18;;;7.10;99.90;;;;;;5031055;28;20025;-56
2022/01/15 12:14:57;;;;;;;25.90;12.48;;;7.10;99.90;;;;;;5037009;28;20483;-57
2022/01/15 12:17:22;;;;;;;;;;;7.10;99.90;;;;;;5038044;28;20021;-56
2022/01/15 12:19:48;;;;;;;29.30;13.13;;;7.20;99.90;;;;;;5038665;28;19912;-57
2022/01/15 12:22:33;;;;;;;;;;;7.30;99.90;;;;;;5034569;28;20045;-55
2022/01/15 12:24:58;;;;;;;27.45;12.50;;;7.40;99.90;;;;;;5039186;28;19984;-56
2022/01/15 12:27:28;;;;;;;;;;;7.30;99.90;;;;;;5028703;28;20494;-53
2022/01/15 12:30:15;;;;;;;24.35;12.10;;;7.30;99.90;;;;;;5028888;28;20361;-58
2022/01/15 12:32:43;;;;;;;28.70;14.07;;;7.30;99.90;;;;;;5037733;28;20064;-58
2022/01/15 12:35:15;;;;;;;23.70;12.77;;;7.30;99.90;;;;;;5027270;28;20099;-54
2022/01/15 12:38:02;;;;;;;33.42;13.95;;;7.20;99.90;;;;;;5028199;28;20041;-56
2022/01/15 12:40:39;;;;;;;27.17;13.45;;;7.10;99.90;;;;;;5039576;28;20048;-57
2022/01/15 12:43:10;;;;;;;29.50;12.82;;;7.10;99.90;;;;;;5034406;28;20030;-57
2022/01/15 12:45:38;;;;;;;25.80;12.25;;;7.00;99.90;;;;;;5033834;28;20104;-57
2022/01/15 12:48:04;;;;;;;28.60;13.25;;;7.00;99.90;;;;;;5027097;28;20485;-59
2022/01/15 12:51:01;;;;;;;23.52;13.48;;;7.00;99.90;;;;;;5025287;28;20106;-55
2022/01/15 12:53:30;;;;;;;22.95;11.45;;;7.10;99.90;;;;;;5029716;28;20030;-54
2022/01/15 12:55:57;;;;;;;22.23;11.82;;;7.10;99.90;;;;;;5027482;28;20370;-53
2022/01/15 12:58:25;;;;;;;19.90;11.98;;;7.10;99.90;;;;;;5027460;28;20037;-60
2022/01/15 13:00:51;;;;;;;21.55;12.70;;;7.00;99.90;;;;;;5021882;28;20044;-57
2022/01/15 13:03:24;;;;;;;26.65;12.90;;;6.90;99.90;;;;;;5028352;28;20439;-55
2022/01/15 13:05:53;;;;;;;23.20;12.48;;;6.90;99.90;;;;;;5024112;28;20439;-56
2022/01/15 13:08:27;;;;;;;29.08;13.93;;;6.90;99.90;;;;;;5028709;28;20043;-55
2022/01/15 13:10:57;;;;;;;31.98;12.98;;;6.80;99.90;;;;;;5033512;28;20063;-58
2022/01/15 13:13:30;;;;;;;45.67;18.42;;;6.90;99.90;;;;;;5027311;28;20063;-58
2022/01/15 13:16:03;;;;;;;27.55;13.07;;;7.00;99.90;;;;;;5021246;28;20056;-62